Time;durP1;ratioP1;P1;durP2;ratioP2;P2;SDS_P1;SDS_P2;PMS_P1;PMS_P2;Temp;Humidity;BMP_temperature;BMP_pressure;BME280_temperature;BME280_humidity;BME280_pressure;Samples;Min_cycle;Max_cycle;Signal;HPM_P1;HPM_P2
2022/11/28 00:02:59;;;;;;;24.30;7.50;;;6.20;99.90;;;3.79;100.00;101010.31;10543835;27;20063;-80
2022/11/28 00:08:03;;;;;;;24.80;9.83;;;6.20;99.90;;;3.80;100.00;101017.25;10577826;27;20507;-79
2022/11/28 00:13:06;;;;;;;22.23;7.93;;;6.20;99.90;;;3.82;100.00;101017.97;10608173;27;20144;-79
2022/11/28 00:18:10;;;;;;;20.63;7.30;;;6.20;99.90;;;3.82;100.00;101015.34;10608972;27;20113;-79
2022/11/28 00:23:13;;;;;;;25.40;8.67;;;6.20;99.90;;;3.83;100.00;101014.38;10608822;27;20055;-79
2022/11/28 00:28:15;;;;;;;31.20;8.30;;;6.20;99.90;;;3.84;100.00;101017.84;10611971;27;20102;-79
2022/11/28 00:33:18;;;;;;;21.23;8.23;;;6.20;99.90;;;3.84;100.00;101015.22;10575561;27;20070;-79
2022/11/28 00:38:21;;;;;;;20.83;7.57;;;6.20;99.90;;;3.84;100.00;101008.22;10570809;28;20086;-79
2022/11/28 00:43:24;;;;;;;24.03;9.00;;;6.20;99.90;;;3.86;100.00;101010.72;10586573;27;20083;-79
2022/11/28 00:48:28;;;;;;;26.37;8.30;;;6.20;99.90;;;3.88;100.00;101014.06;10574674;27;20117;-79
2022/11/28 00:53:31;;;;;;;29.97;8.60;;;6.30;99.90;;;3.87;100.00;101015.88;10592898;27;20155;-79
2022/11/28 00:58:35;;;;;;;26.13;7.50;;;6.30;99.90;;;3.86;100.00;101015.97;10569460;27;20056;-80
2022/11/28 01:03:40;;;;;;;27.33;7.50;;;6.20;99.90;;;3.85;100.00;101022.19;10577995;27;20061;-80
2022/11/28 01:08:43;;;;;;;23.60;7.93;;;6.30;99.90;;;3.87;100.00;101013.25;10592640;27;20058;-80
2022/11/28 01:13:47;;;;;;;30.53;7.97;;;6.20;99.90;;;3.85;100.00;101014.31;10611607;27;20059;-79
2022/11/28 01:18:50;;;;;;;28.67;8.33;;;6.20;99.90;;;3.82;100.00;101007.44;10586311;27;20060;-79
2022/11/28 01:23:53;;;;;;;26.43;7.23;;;6.20;99.90;;;3.80;100.00;101011.13;10585274;27;20056;-80
2022/11/28 01:28:58;;;;;;;23.93;9.37;;;6.20;99.90;;;3.78;100.00;101010.38;10586271;27;20055;-80
2022/11/28 01:34:01;;;;;;;26.30;8.27;;;6.10;99.90;;;3.77;100.00;101006.91;10591442;27;20067;-80
2022/11/28 01:39:04;;;;;;;29.57;9.33;;;6.10;99.90;;;3.75;100.00;101006.19;10577572;27;20059;-79
2022/11/28 01:44:13;;;;;;;23.37;7.33;;;6.10;99.90;;;3.75;100.00;100987.78;10589493;27;20067;-79
2022/11/28 01:49:24;;;;;;;34.17;9.30;;;6.10;99.90;;;3.75;100.00;100966.75;10603499;27;20117;-79
2022/11/28 01:54:30;;;;;;;26.93;9.53;;;6.10;99.90;;;3.71;100.00;100960.84;10571919;27;20113;-79
2022/11/28 01:59:43;;;;;;;28.67;10.17;;;6.10;99.90;;;3.71;100.00;100966.13;10603471;27;20281;-79
2022/11/28 02:04:46;;;;;;;27.80;9.37;;;6.00;99.90;;;3.72;100.00;100964.34;10550071;27;20152;-79
2022/11/28 02:09:49;;;;;;;29.90;8.93;;;6.10;99.90;;;3.73;100.00;100953.72;10568960;27;20055;-80
2022/11/28 02:15:11;;;;;;;19.47;7.10;;;6.10;99.90;;;3.76;100.00;100957.91;10637716;27;20051;-80
2022/11/28 02:21:04;;;;;;;29.93;8.10;;;6.10;99.90;;;3.77;100.00;100949.06;10589913;27;20055;-80
2022/11/28 02:26:38;;;;;;;33.22;8.38;;;6.20;99.90;;;3.80;100.00;100941.00;10603280;27;20068;-79
2022/11/28 02:32:08;;;;;;;29.17;8.97;;;6.10;99.90;;;3.80;100.00;100941.00;10638376;27;20437;-79
2022/11/28 02:37:35;;;;;;;26.47;8.83;;;6.20;99.90;;;3.82;100.00;100939.09;10607936;27;20503;-79
2022/11/28 02:43:09;;;;;;;26.70;8.37;;;6.20;99.90;;;3.82;100.00;100933.84;10590378;27;20095;-80
2022/11/28 02:48:36;;;;;;;31.93;9.60;;;6.20;99.90;;;3.82;100.00;100928.56;10587278;27;20113;-79
2022/11/28 02:53:42;;;;;;;21.97;7.13;;;6.20;99.90;;;3.83;100.00;100930.25;10567383;27;20060;-79
2022/11/28 02:58:45;;;;;;;30.10;9.07;;;6.20;99.90;;;3.82;100.00;100925.94;10582912;27;20095;-79
2022/11/28 03:04:00;;;;;;;25.53;7.80;;;6.20;99.90;;;3.84;100.00;100917.94;10576032;27;20113;-79
2022/11/28 03:09:45;;;;;;;20.17;7.17;;;6.20;99.90;;;3.85;100.00;100924.91;10615803;27;20059;-80
2022/11/28 03:15:01;;;;;;;25.97;7.97;;;6.20;99.90;;;3.86;100.00;100916.06;10555247;27;20056;-79
2022/11/28 03:20:33;;;;;;;29.27;9.67;;;6.20;99.90;;;3.84;100.00;100912.69;10591160;27;20058;-80
2022/11/28 03:26:04;;;;;;;26.20;8.50;;;6.20;99.90;;;3.79;100.00;100902.50;10613914;27;20140;-80
2022/11/28 03:31:14;;;;;;;35.63;9.97;;;6.20;99.90;;;3.78;100.00;100900.84;10596847;27;20082;-80
2022/11/28 03:36:30;;;;;;;23.00;8.00;;;6.20;99.90;;;3.71;100.00;100892.50;10596136;27;20066;-80
2022/11/28 03:41:42;;;;;;;33.57;11.10;;;6.10;99.90;;;3.63;100.00;100878.22;10578975;27;20067;-79
2022/11/28 03:46:48;;;;;;;35.57;11.67;;;6.00;99.90;;;3.49;100.00;100871.31;10580315;27;20055;-79
2022/11/28 03:52:00;;;;;;;27.73;8.90;;;5.80;99.90;;;3.37;100.00;100866.91;10608680;27;20052;-79
2022/11/28 03:57:14;;;;;;;23.73;8.82;;;5.70;99.90;;;3.30;100.00;100861.22;10601116;27;20052;-79
2022/11/28 04:02:50;;;;;;;28.53;8.43;;;5.70;99.90;;;3.24;100.00;100856.41;10592139;27;20069;-79
2022/11/28 04:08:13;;;;;;;22.67;8.03;;;5.60;99.90;;;3.19;100.00;100853.25;10613604;27;20059;-79
2022/11/28 04:13:54;;;;;;;21.20;8.17;;;5.60;99.90;;;3.10;100.00;100853.84;10602545;27;20063;-79
2022/11/28 04:19:30;;;;;;;18.30;6.47;;;5.50;99.90;;;2.97;100.00;100850.38;10603105;27;20062;-79
2022/11/28 04:24:46;;;;;;;21.30;6.97;;;5.40;99.90;;;2.87;100.00;100847.53;10585332;28;20496;-79
2022/11/28 04:29:55;;;;;;;13.80;6.03;;;5.30;99.90;;;2.82;100.00;100846.97;10579291;27;20139;-79
2022/11/28 04:35:12;;;;;;;21.83;6.60;;;5.20;99.90;;;2.78;100.00;100848.97;10551468;28;20561;-79
2022/11/28 04:40:17;;;;;;;18.80;7.57;;;5.20;99.90;;;2.75;100.00;100843.94;10597664;27;20516;-79
2022/11/28 04:45:28;;;;;;;22.70;6.47;;;5.20;99.90;;;2.74;100.00;100842.25;10625401;27;20059;-79
2022/11/28 04:50:47;;;;;;;19.90;6.35;;;5.20;99.90;;;2.76;100.00;100837.75;10593227;27;20063;-79
2022/11/28 04:56:00;;;;;;;25.00;9.73;;;5.20;99.90;;;2.80;100.00;100838.38;10555710;28;20083;-79
2022/11/28 05:01:09;;;;;;;22.27;8.23;;;5.20;99.90;;;2.84;100.00;100835.44;10580995;27;20135;-79
2022/11/28 05:06:32;;;;;;;19.73;8.23;;;5.30;99.90;;;2.90;100.00;100842.91;10593791;27;20071;-78
2022/11/28 05:11:36;;;;;;;22.40;7.03;;;5.30;99.90;;;2.92;100.00;100848.91;10562892;27;20102;-78
2022/11/28 05:16:38;;;;;;;16.90;8.23;;;5.30;99.90;;;2.94;100.00;100846.19;10591758;27;20059;-78
2022/11/28 05:21:42;;;;;;;15.13;6.27;;;5.40;99.90;;;2.93;100.00;100839.22;10608299;27;20064;-78
2022/11/28 05:26:45;;;;;;;21.43;7.10;;;5.40;99.90;;;2.93;100.00;100852.34;10580345;27;20070;-78
2022/11/28 05:31:48;;;;;;;29.00;10.30;;;5.30;99.90;;;2.95;100.00;100861.00;10595599;27;20634;-78
2022/11/28 05:36:51;;;;;;;25.70;9.37;;;5.40;99.90;;;2.98;100.00;100857.31;10568427;27;20093;-78
2022/11/28 05:41:55;;;;;;;28.53;9.83;;;5.40;99.90;;;3.03;100.00;100865.72;10580780;27;20060;-77
2022/11/28 05:46:58;;;;;;;32.10;8.53;;;5.40;99.90;;;3.08;100.00;100876.75;10594512;27;20392;-80
2022/11/28 05:52:01;;;;;;;31.60;9.90;;;5.40;99.90;;;3.10;100.00;100877.50;10641148;27;20063;-79
2022/11/28 05:57:07;;;;;;;31.33;9.83;;;5.50;99.90;;;3.14;100.00;100873.72;10571920;27;20063;-80
2022/11/28 06:02:10;;;;;;;28.30;10.27;;;5.50;99.90;;;3.15;100.00;100873.59;10625675;27;20495;-79
2022/11/28 06:07:13;;;;;;;32.67;11.43;;;5.50;99.90;;;3.18;100.00;100868.16;10572127;27;20064;-80
2022/11/28 06:12:16;;;;;;;32.87;11.47;;;5.50;99.90;;;3.19;100.00;100869.00;10564912;27;20060;-80
2022/11/28 06:17:19;;;;;;;30.37;9.77;;;5.60;99.90;;;3.21;100.00;100869.72;10566781;28;20060;-79
2022/11/28 06:22:22;;;;;;;33.63;10.73;;;5.60;99.90;;;3.22;100.00;100866.16;10584257;27;20431;-79
2022/11/28 06:27:25;;;;;;;35.17;12.40;;;5.60;99.90;;;3.21;100.00;100864.47;10567221;28;20507;-79
2022/11/28 06:32:28;;;;;;;35.47;12.40;;;5.60;99.90;;;3.18;100.00;100872.56;10555849;27;20055;-79
2022/11/28 06:37:30;;;;;;;42.23;12.50;;;5.50;99.90;;;3.18;100.00;100878.66;10643621;27;20048;-79
2022/11/28 06:42:35;;;;;;;42.33;13.20;;;5.50;99.90;;;3.17;100.00;100876.13;10592004;27;20056;-79
2022/11/28 06:47:38;;;;;;;34.57;12.67;;;5.50;99.90;;;3.16;100.00;100884.94;10583459;27;20056;-79
2022/11/28 06:52:41;;;;;;;42.17;13.90;;;5.50;99.90;;;3.14;100.00;100887.69;10569222;27;20469;-80
2022/11/28 06:57:45;;;;;;;38.37;13.67;;;5.50;99.90;;;3.15;100.00;100893.78;10602537;27;20063;-79
2022/11/28 07:02:48;;;;;;;41.70;13.53;;;5.50;99.90;;;3.16;100.00;100887.56;10597877;27;20064;-79
2022/11/28 07:07:51;;;;;;;46.63;16.27;;;5.50;99.90;;;3.18;100.00;100888.34;10598417;27;20066;-79
2022/11/28 07:12:59;;;;;;;40.33;13.40;;;5.50;99.90;;;3.20;100.00;100887.28;10609448;27;21985;-80
2022/11/28 07:18:07;;;;;;;30.63;12.50;;;5.50;99.90;;;3.23;100.00;100876.53;10582246;27;20055;-80
2022/11/28 07:23:10;;;;;;;38.17;13.30;;;5.60;99.90;;;3.27;100.00;100884.22;10585158;27;20418;-80
2022/11/28 07:28:13;;;;;;;37.23;13.00;;;5.60;99.90;;;3.33;100.00;100884.66;10635575;27;20090;-80
2022/11/28 07:33:16;;;;;;;42.87;13.07;;;5.60;99.90;;;3.46;100.00;100885.50;10633520;27;20062;-80
2022/11/28 07:38:20;;;;;;;38.93;14.60;;;5.80;99.90;;;3.57;100.00;100876.88;10592206;27;20059;-79
2022/11/28 07:43:23;;;;;;;33.77;14.13;;;5.90;99.90;;;3.61;100.00;100874.88;10604141;27;20060;-80
2022/11/28 07:48:26;;;;;;;30.87;13.30;;;5.90;99.90;;;3.65;100.00;100871.06;10614667;27;20059;-80
2022/11/28 07:53:29;;;;;;;32.97;14.07;;;6.00;99.90;;;3.71;100.00;100870.66;10596172;27;20086;-80
2022/11/28 07:58:34;;;;;;;38.20;15.40;;;6.00;99.90;;;3.75;100.00;100861.59;10597646;27;20056;-80
2022/11/28 08:03:38;;;;;;;37.70;17.83;;;6.10;99.90;;;3.78;100.00;100866.66;10596705;27;20485;-80
2022/11/28 08:08:41;;;;;;;33.63;15.93;;;6.10;99.90;;;3.82;100.00;100852.31;10627132;27;20055;-80
2022/11/28 08:13:44;;;;;;;34.57;13.57;;;6.20;99.90;;;3.85;100.00;100852.13;10630222;27;20052;-80
2022/11/28 08:18:49;;;;;;;33.13;14.20;;;6.20;99.90;;;3.86;100.00;100853.81;10576519;28;20052;-80
2022/11/28 08:23:53;;;;;;;34.80;14.23;;;6.20;99.90;;;3.89;100.00;100845.69;10592034;27;20106;-80
2022/11/28 08:28:58;;;;;;;33.80;14.30;;;6.20;99.90;;;3.93;100.00;100857.66;10612803;27;20055;-80
2022/11/28 08:34:04;;;;;;;29.47;13.33;;;6.30;99.90;;;3.94;100.00;100855.88;10617653;27;20063;-80
2022/11/28 08:39:08;;;;;;;30.63;12.90;;;6.30;99.90;;;4.05;100.00;100863.00;10592223;27;20851;-81
2022/11/28 08:44:27;;;;;;;25.03;11.63;;;6.40;99.90;;;4.12;100.00;100864.25;10598044;27;20059;-80
2022/11/28 08:49:32;;;;;;;27.23;10.97;;;6.40;99.90;;;4.24;100.00;100855.47;10613371;27;20052;-80
2022/11/28 08:54:35;;;;;;;28.23;11.07;;;6.60;99.90;;;4.33;100.00;100860.06;10590254;27;20059;-80
2022/11/28 08:59:38;;;;;;;25.80;10.97;;;6.60;99.90;;;4.43;100.00;100863.69;10609533;27;20109;-80
2022/11/28 09:04:42;;;;;;;24.33;10.67;;;6.80;99.90;;;4.53;100.00;100856.81;10595336;27;20082;-80
2022/11/28 09:09:44;;;;;;;21.03;9.27;;;6.90;99.90;;;4.55;100.00;100854.06;10602938;27;20416;-80
2022/11/28 09:14:48;;;;;;;20.17;9.03;;;6.90;99.90;;;4.50;100.00;100848.31;10569237;28;20439;-81
2022/11/28 09:19:50;;;;;;;19.30;8.73;;;6.90;99.90;;;4.49;100.00;100836.09;10579513;27;20059;-80
2022/11/28 09:24:53;;;;;;;19.43;8.47;;;6.90;99.90;;;4.52;100.00;100833.25;10597432;27;20426;-80
2022/11/28 09:29:56;;;;;;;19.53;8.50;;;6.90;99.90;;;4.60;100.00;100837.94;10629775;27;20055;-80
2022/11/28 09:34:59;;;;;;;28.33;15.10;;;7.00;99.90;;;4.62;99.35;100834.25;10593528;27;20098;-80
2022/11/28 09:40:02;;;;;;;18.87;8.47;;;7.00;99.90;;;4.59;98.04;100828.38;10567757;28;20085;-80
2022/11/28 09:45:19;;;;;;;18.47;8.20;;;7.00;99.90;;;4.56;96.86;100821.53;10568812;28;20060;-80
2022/11/28 09:50:27;;;;;;;18.93;9.07;;;7.00;99.90;;;4.50;95.82;100822.84;10604873;27;20536;-80
2022/11/28 09:55:57;;;;;;;20.70;9.13;;;6.90;99.90;;;4.40;94.75;100806.03;10566785;28;20052;-80
2022/11/28 10:01:09;;;;;;;24.57;11.63;;;6.80;99.90;;;4.35;94.34;100802.06;10554948;27;20081;-80
2022/11/28 10:07:04;;;;;;;21.17;10.10;;;6.70;99.90;;;4.29;93.96;100800.72;10602132;27;20584;-80
2022/11/28 10:12:39;;;;;;;23.33;10.23;;;6.70;99.90;;;4.24;93.75;100794.97;10610724;27;20572;-80
2022/11/28 10:18:18;;;;;;;20.27;9.73;;;6.60;99.90;;;4.20;93.88;100791.72;10608929;27;20055;-80
2022/11/28 10:23:32;;;;;;;22.47;10.60;;;6.60;99.90;;;4.23;94.06;100777.50;10602197;27;20060;-80
2022/11/28 10:28:41;;;;;;;23.37;10.93;;;6.60;99.90;;;4.22;93.38;100781.94;10594375;27;20055;-80
2022/11/28 10:33:49;;;;;;;23.13;10.90;;;6.60;99.90;;;4.27;93.61;100773.69;10567940;27;20064;-80
2022/11/28 10:38:52;;;;;;;19.73;10.07;;;6.60;99.90;;;4.41;93.76;100775.31;10578230;27;20106;-81
2022/11/28 10:44:17;;;;;;;22.13;10.93;;;6.70;99.90;;;4.45;92.84;100774.97;10592946;28;20481;-80
2022/11/28 10:49:52;;;;;;;21.17;9.83;;;6.80;99.90;;;4.53;92.35;100764.69;10573046;27;20059;-80
2022/11/28 10:55:32;;;;;;;20.25;9.15;;;6.90;99.90;;;4.55;90.74;100756.66;10597443;27;20113;-80
2022/11/28 11:00:37;;;;;;;21.50;10.30;;;7.00;99.90;;;4.49;89.56;100757.97;10621724;27;20063;-79
2022/11/28 11:05:40;;;;;;;23.53;10.23;;;6.90;99.90;;;4.42;89.61;100754.13;10618132;27;20063;-80
2022/11/28 11:11:03;;;;;;;23.00;10.57;;;6.80;99.90;;;4.40;89.44;100749.94;10612689;27;20055;-80
2022/11/28 11:16:10;;;;;;;24.03;10.60;;;6.80;99.90;;;4.35;89.48;100750.28;10619664;27;20529;-80
2022/11/28 11:21:22;;;;;;;21.70;10.23;;;6.70;99.90;;;4.32;89.65;100752.28;10576475;27;20558;-80
2022/11/28 11:26:31;;;;;;;;;;;6.70;99.90;;;4.32;90.13;100747.91;10627175;27;20059;-80
2022/11/28 11:31:43;;;;;;;21.47;10.37;;;6.70;99.90;;;4.28;90.07;100736.75;10609702;27;19928;-80
2022/11/28 11:36:47;;;;;;;25.67;9.93;;;6.60;99.90;;;4.31;90.22;100738.28;10556619;28;20080;-80
2022/11/28 11:42:00;;;;;;;23.03;10.83;;;6.70;99.90;;;4.27;90.01;100735.06;10613931;27;20052;-80
2022/11/28 11:47:07;;;;;;;24.63;10.67;;;6.70;99.90;;;4.22;89.65;100736.38;10614417;27;20434;-80
2022/11/28 11:52:26;;;;;;;23.43;9.90;;;6.60;99.90;;;4.12;89.31;100740.63;10600388;27;20064;-80
2022/11/28 11:57:42;;;;;;;22.70;10.30;;;6.50;99.90;;;4.03;88.91;100739.53;10612927;27;20062;-80
2022/11/28 12:03:01;;;;;;;23.00;9.87;;;6.40;99.90;;;3.98;88.74;100734.59;10598807;27;20055;-80
2022/11/28 12:09:02;;;;;;;23.00;10.77;;;6.40;99.90;;;3.95;89.00;100732.16;10612477;27;20066;-80
2022/11/28 12:14:33;;;;;;;29.50;11.87;;;6.30;99.90;;;3.91;88.93;100724.66;10598450;27;20055;-80
2022/11/28 12:20:18;;;;;;;32.83;16.60;;;6.30;99.90;;;3.84;88.59;100729.50;10586116;27;20143;-80
2022/11/28 12:26:00;;;;;;;28.83;12.60;;;6.30;99.90;;;3.78;88.88;100719.44;10595999;27;20096;-80
2022/11/28 12:31:36;;;;;;;29.27;12.43;;;6.20;99.90;;;3.75;89.38;100723.13;10613735;27;20059;-81
2022/11/28 12:36:55;;;;;;;30.77;13.43;;;6.10;99.90;;;3.74;89.73;100715.34;10606659;27;20573;-80
2022/11/28 12:42:01;;;;;;;29.03;11.27;;;6.10;99.90;;;3.77;89.89;100707.22;10578486;27;20083;-81
2022/11/28 12:47:47;;;;;;;28.73;13.30;;;6.20;99.90;;;3.79;90.08;100699.25;10557738;28;20087;-81
2022/11/28 12:53:15;;;;;;;27.47;13.60;;;6.20;99.90;;;3.82;90.19;100706.91;10578177;27;20640;-81
2022/11/28 12:58:25;;;;;;;23.87;11.87;;;6.20;99.90;;;3.84;90.44;100702.34;10578125;28;20056;-81
2022/11/28 13:03:46;;;;;;;24.42;12.30;;;6.20;99.90;;;3.88;90.39;100701.19;10593714;27;20142;-81
2022/11/28 13:09:10;;;;;;;24.67;12.47;;;6.30;99.90;;;3.91;90.72;100696.56;10593876;27;20064;-81
2022/11/28 13:14:20;;;;;;;27.27;11.57;;;6.30;99.90;;;3.96;90.89;100698.84;10585601;28;20056;-81
2022/11/28 13:19:56;;;;;;;23.77;10.93;;;6.40;99.90;;;3.98;90.84;100694.31;10588742;27;20063;-81
2022/11/28 13:25:23;;;;;;;24.10;10.73;;;6.40;99.90;;;4.00;90.65;100677.44;10588465;27;20079;-81
2022/11/28 13:30:32;;;;;;;16.63;8.93;;;6.40;99.90;;;4.06;90.79;100689.31;10569088;28;20599;-81
2022/11/28 13:35:36;;;;;;;23.07;9.80;;;6.50;99.90;;;4.05;90.83;100685.00;10590553;27;20086;-81
2022/11/28 13:41:08;;;;;;;18.70;10.43;;;6.50;99.90;;;4.06;90.67;100681.41;10567519;27;20055;-80
2022/11/28 13:46:32;;;;;;;21.30;10.73;;;6.50;99.90;;;4.02;90.44;100683.47;10609002;27;20052;-81
2022/11/28 13:51:36;;;;;;;18.67;8.87;;;6.50;99.90;;;3.98;90.65;100674.09;10592355;27;20066;-81
2022/11/28 13:56:39;;;;;;;21.83;11.03;;;6.50;99.90;;;3.95;90.93;100676.94;10592480;27;20059;-81
2022/11/28 14:01:49;;;;;;;28.67;12.73;;;6.40;99.90;;;3.93;91.35;100670.97;10626224;27;20052;-80
2022/11/28 14:07:03;;;;;;;27.50;12.60;;;6.40;99.90;;;3.90;91.48;100676.47;10594194;27;20135;-81
2022/11/28 14:12:43;;;;;;;26.60;11.23;;;6.40;99.90;;;3.85;91.30;100668.09;10589821;27;20415;-81
2022/11/28 14:18:19;;;;;;;20.13;10.00;;;6.30;99.90;;;3.79;91.56;100665.06;10609505;27;20055;-81
2022/11/28 14:23:50;;;;;;;21.53;11.33;;;6.20;99.90;;;3.73;91.53;100664.56;10595625;27;20060;-81
2022/11/28 14:28:53;;;;;;;17.27;8.43;;;6.20;99.90;;;3.71;92.05;100661.19;10587795;27;20147;-81
2022/11/28 14:34:24;;;;;;;27.17;12.70;;;6.10;99.90;;;3.67;91.95;100662.38;10601868;27;20063;-81
2022/11/28 14:39:34;;;;;;;27.80;12.97;;;6.10;99.90;;;3.62;92.15;100656.63;10593362;27;20099;-81
2022/11/28 14:44:55;;;;;;;26.63;12.27;;;6.00;99.90;;;3.59;92.56;100650.75;10574274;27;20065;-81
2022/11/28 14:50:05;;;;;;;25.52;12.27;;;6.00;99.90;;;3.56;92.85;100659.69;10592610;27;20047;-81
2022/11/28 14:55:11;;;;;;;25.93;11.90;;;6.00;99.90;;;3.48;92.92;100659.44;10609383;27;20056;-82
2022/11/28 15:00:22;;;;;;;30.80;13.67;;;5.90;99.90;;;3.37;93.37;100657.56;10602689;27;20526;-82
2022/11/28 15:06:09;;;;;;;32.65;14.43;;;5.80;99.90;;;3.24;93.84;100651.53;10615040;27;20327;-82
2022/11/28 15:11:57;;;;;;;37.13;15.17;;;5.70;99.90;;;3.10;93.93;100662.16;10579835;27;20060;-82
2022/11/28 15:17:04;;;;;;;27.23;12.77;;;5.50;99.90;;;2.93;94.26;100668.59;10590978;27;20063;-82
2022/11/28 15:22:42;;;;;;;35.03;14.20;;;5.40;99.90;;;2.83;94.99;100671.03;10587309;27;20055;-80
2022/11/28 15:27:45;;;;;;;28.37;12.90;;;5.30;99.90;;;2.76;95.39;100679.41;10633241;27;20094;-80
2022/11/28 15:32:48;;;;;;;32.73;14.47;;;5.20;99.90;;;2.69;95.85;100671.13;10609855;27;20048;-81
2022/11/28 15:37:57;;;;;;;28.50;13.57;;;5.10;99.90;;;2.63;96.35;100676.81;10597210;27;20052;-80
2022/11/28 15:43:02;;;;;;;33.17;12.83;;;5.10;99.90;;;2.59;96.80;100683.22;10617084;27;20063;-80
2022/11/28 15:48:49;;;;;;;34.67;14.73;;;5.00;99.90;;;2.58;97.09;100692.03;10599364;27;20427;-80
2022/11/28 15:53:53;;;;;;;35.17;15.97;;;5.00;99.90;;;2.53;97.12;100686.28;10567106;27;20059;-80
2022/11/28 15:58:56;;;;;;;38.03;15.87;;;5.00;99.90;;;2.48;97.47;100688.34;10596640;27;20058;-80
2022/11/28 16:04:16;;;;;;;39.13;15.77;;;4.90;99.90;;;2.42;97.93;100685.19;10595596;27;20525;-80
2022/11/28 16:09:19;;;;;;;33.30;13.50;;;4.90;99.90;;;2.41;98.19;100685.31;10580692;27;20528;-79
2022/11/28 16:14:28;;;;;;;35.57;14.33;;;4.90;99.90;;;2.38;98.62;100694.22;10601365;27;20056;-80
2022/11/28 16:19:35;;;;;;;37.43;15.87;;;4.80;99.90;;;2.34;99.09;100690.13;10597641;27;20368;-79
2022/11/28 16:24:43;;;;;;;35.63;14.90;;;4.80;99.90;;;2.31;99.09;100699.97;10583551;27;20062;-80
2022/11/28 16:29:46;;;;;;;33.27;15.47;;;4.70;99.90;;;2.26;99.32;100702.06;10596034;27;20052;-80
2022/11/28 16:34:52;;;;;;;45.97;19.57;;;4.70;99.90;;;2.21;99.67;100697.13;10588024;27;20067;-80
2022/11/28 16:40:18;;;;;;;39.03;17.30;;;4.70;99.90;;;2.18;99.71;100688.63;10607095;27;20547;-80
2022/11/28 16:45:31;;;;;;;31.50;13.90;;;4.60;99.90;;;2.16;100.00;100696.63;10596041;27;20526;-80
2022/11/28 16:50:35;;;;;;;37.00;14.93;;;4.60;99.90;;;2.17;100.00;100706.16;10587172;27;20055;-80
2022/11/28 16:55:41;;;;;;;33.53;15.53;;;4.60;99.90;;;2.18;100.00;100705.22;10593345;27;20126;-80
2022/11/28 17:01:01;;;;;;;45.37;18.30;;;4.60;99.90;;;2.19;100.00;100706.03;10588944;27;20058;-80
2022/11/28 17:06:05;;;;;;;35.90;16.60;;;4.60;99.90;;;2.14;100.00;100712.44;10626789;27;20059;-80
2022/11/28 17:11:08;;;;;;;48.10;20.47;;;4.60;99.90;;;2.05;100.00;100717.44;10564787;28;20503;-80
2022/11/28 17:16:35;;;;;;;53.37;22.70;;;4.50;99.90;;;1.98;100.00;100713.53;10550925;28;20420;-80
2022/11/28 17:21:44;;;;;;;47.97;21.83;;;4.40;99.90;;;1.95;100.00;100708.50;10603229;27;20063;-79
2022/11/28 17:26:49;;;;;;;34.07;17.87;;;4.40;99.90;;;1.94;100.00;100712.91;10647775;27;20055;-79
2022/11/28 17:31:55;;;;;;;38.17;17.47;;;4.40;99.90;;;1.97;100.00;100719.72;10594006;27;20060;-80
2022/11/28 17:37:00;;;;;;;45.47;18.00;;;4.40;99.90;;;2.00;100.00;100717.75;10603090;27;20066;-80
2022/11/28 17:42:04;;;;;;;32.67;14.73;;;4.40;99.90;;;2.02;100.00;100715.03;10609829;27;20105;-80
2022/11/28 17:47:07;;;;;;;33.87;14.90;;;4.50;99.90;;;2.03;100.00;100716.69;10592849;27;20060;-79
2022/11/28 17:52:10;;;;;;;39.70;17.77;;;4.50;99.90;;;1.98;100.00;100711.78;10592904;27;20039;-79
2022/11/28 17:57:13;;;;;;;36.83;14.57;;;4.50;99.90;;;1.89;100.00;100717.59;10569342;28;20106;-80
2022/11/28 18:02:16;;;;;;;44.77;17.50;;;4.40;99.90;;;1.72;100.00;100713.44;10619263;27;20055;-80
2022/11/28 18:07:19;;;;;;;48.73;19.13;;;4.30;99.90;;;1.53;100.00;100713.78;10607717;27;20589;-80
2022/11/28 18:12:22;;;;;;;50.97;19.90;;;4.10;99.90;;;1.44;100.00;100717.00;10564821;27;20070;-80
2022/11/28 18:17:25;;;;;;;40.07;18.43;;;4.00;99.90;;;1.43;100.00;100714.47;10612057;27;20059;-80
2022/11/28 18:22:28;;;;;;;38.00;16.83;;;3.90;99.90;;;1.49;100.00;100714.06;10585668;27;20090;-80
2022/11/28 18:27:31;;;;;;;46.10;18.83;;;4.00;99.90;;;1.54;100.00;100717.25;10609954;27;20085;-80
2022/11/28 18:32:34;;;;;;;38.00;16.73;;;4.00;99.90;;;1.57;100.00;100717.06;10596837;27;20561;-80
2022/11/28 18:37:37;;;;;;;57.33;24.10;;;4.00;99.90;;;1.60;100.00;100725.53;10582708;27;20522;-80
2022/11/28 18:42:41;;;;;;;38.37;17.77;;;4.10;99.90;;;1.63;100.00;100729.78;10609442;27;20150;-80
2022/11/28 18:47:44;;;;;;;40.43;16.70;;;4.10;99.90;;;1.64;100.00;100728.81;10606419;27;20063;-80
2022/11/28 18:52:47;;;;;;;40.00;16.17;;;4.10;99.90;;;1.63;100.00;100727.16;10616249;27;20059;-84
2022/11/28 18:57:50;;;;;;;38.87;15.37;;;4.10;99.90;;;1.64;100.00;100736.69;10565291;27;20135;-81
2022/11/28 19:02:53;;;;;;;40.80;17.37;;;4.10;99.90;;;1.67;100.00;100738.25;10590016;27;20156;-84
2022/11/28 19:07:57;;;;;;;46.50;17.73;;;4.10;99.90;;;1.67;100.00;100728.63;10590757;27;20063;-84
2022/11/28 19:13:00;;;;;;;36.10;14.47;;;4.10;99.90;;;1.67;100.00;100722.53;10591033;27;20060;-84
2022/11/28 19:18:03;;;;;;;36.70;15.20;;;4.10;99.90;;;1.63;100.00;100727.16;10597772;27;20507;-86
2022/11/28 19:23:06;;;;;;;40.17;16.47;;;4.10;99.90;;;1.57;100.00;100725.75;10626194;27;20059;-84
2022/11/28 19:28:08;;;;;;;39.67;16.93;;;4.10;99.90;;;1.52;100.00;100721.75;10613248;27;20062;-84
2022/11/28 19:33:11;;;;;;;42.33;17.20;;;4.00;99.90;;;1.47;100.00;100719.41;10591727;27;20056;-83
2022/11/28 19:38:14;;;;;;;42.13;17.10;;;4.00;99.90;;;1.42;100.00;100720.63;10587701;27;21690;-85
2022/11/28 19:43:17;;;;;;;38.27;16.13;;;3.90;99.90;;;1.40;100.00;100725.13;10582167;27;20051;-84
2022/11/28 19:48:22;;;;;;;41.07;16.50;;;3.90;99.90;;;1.31;100.00;100727.38;10605048;27;20056;-82
2022/11/28 19:53:27;;;;;;;32.77;12.90;;;3.80;99.90;;;1.23;100.00;100726.19;10589039;27;20055;-84
2022/11/28 19:58:30;;;;;;;28.70;12.27;;;3.70;99.90;;;1.22;100.00;100729.75;10613475;27;20058;-81
2022/11/28 20:03:34;;;;;;;34.90;14.17;;;3.70;99.90;;;1.22;100.00;100721.91;10589243;27;20078;-82
2022/11/28 20:08:38;;;;;;;40.20;15.97;;;3.70;99.90;;;1.22;100.00;100733.19;10577099;27;20142;-82
2022/11/28 20:13:42;;;;;;;32.33;13.00;;;3.70;99.90;;;1.22;100.00;100727.97;10591227;27;20068;-82
2022/11/28 20:18:46;;;;;;;33.80;13.43;;;3.70;99.90;;;1.22;100.00;100720.13;10567395;28;20080;-82
2022/11/28 20:23:53;;;;;;;37.27;13.33;;;3.70;99.90;;;1.22;100.00;100724.50;10598686;27;20066;-82
2022/11/28 20:28:57;;;;;;;36.47;16.03;;;3.70;99.90;;;1.18;100.00;100725.63;10613614;27;20063;-82
2022/11/28 20:34:00;;;;;;;43.40;14.90;;;3.60;99.90;;;1.17;100.00;100722.16;10591824;27;20071;-82
2022/11/28 20:39:04;;;;;;;34.23;13.83;;;3.60;99.90;;;1.14;100.00;100727.63;10630361;27;20082;-82
2022/11/28 20:44:08;;;;;;;42.63;14.77;;;3.50;99.90;;;1.15;100.00;100731.91;10613038;27;20069;-82
2022/11/28 20:49:14;;;;;;;35.83;13.73;;;3.50;99.90;;;1.18;100.00;100726.47;10614769;27;20067;-81
2022/11/28 20:54:18;;;;;;;36.00;13.70;;;3.60;99.90;;;1.21;100.00;100721.06;10594051;27;20062;-82
2022/11/28 20:59:21;;;;;;;35.47;13.87;;;3.60;99.90;;;1.24;100.00;100726.09;10594499;27;20062;-82
2022/11/28 21:04:24;;;;;;;22.80;11.30;;;3.70;99.90;;;1.29;100.00;100734.50;10604443;27;20059;-82
2022/11/28 21:09:27;;;;;;;33.90;13.30;;;3.70;99.90;;;1.30;100.00;100737.97;10611557;27;20067;-82
2022/11/28 21:14:30;;;;;;;39.73;15.27;;;3.80;99.90;;;1.33;100.00;100741.25;10611730;27;20060;-81
2022/11/28 21:19:33;;;;;;;40.43;16.10;;;3.80;99.90;;;1.37;100.00;100741.03;10628666;27;20109;-82